sensor_id;sensor_type;location;lat;lon;timestamp;P1;durP1;ratioP1;P2;durP2;ratioP2
7843;SDS011;3967;48.702;9.326;2023-04-28T00:02:03;4.83;;;4.10;;
7843;SDS011;3967;48.702;9.326;2023-04-28T00:04:30;5.47;;;4.20;;
7843;SDS011;3967;48.702;9.326;2023-04-28T00:06:57;4.00;;;3.70;;
7843;SDS011;3967;48.702;9.326;2023-04-28T00:09:24;6.60;;;4.07;;
7843;SDS011;3967;48.702;9.326;2023-04-28T00:11:50;4.27;;;3.83;;
7843;SDS011;3967;48.702;9.326;2023-04-28T00:14:17;3.70;;;3.40;;
7843;SDS011;3967;48.702;9.326;2023-04-28T00:16:44;8.97;;;4.17;;
7843;SDS011;3967;48.702;9.326;2023-04-28T00:19:11;7.13;;;3.80;;
7843;SDS011;3967;48.702;9.326;2023-04-28T00:21:38;4.50;;;3.77;;
7843;SDS011;3967;48.702;9.326;2023-04-28T00:24:05;5.37;;;4.07;;
7843;SDS011;3967;48.702;9.326;2023-04-28T00:26:32;5.90;;;3.97;;
7843;SDS011;3967;48.702;9.326;2023-04-28T00:28:58;4.53;;;4.10;;
7843;SDS011;3967;48.702;9.326;2023-04-28T00:31:25;6.53;;;4.00;;
7843;SDS011;3967;48.702;9.326;2023-04-28T00:33:52;4.77;;;4.00;;
7843;SDS011;3967;48.702;9.326;2023-04-28T00:36:19;4.73;;;3.67;;
7843;SDS011;3967;48.702;9.326;2023-04-28T00:38:45;6.30;;;3.63;;
7843;SDS011;3967;48.702;9.326;2023-04-28T00:41:12;5.60;;;3.47;;
7843;SDS011;3967;48.702;9.326;2023-04-28T00:43:46;5.50;;;3.40;;
7843;SDS011;3967;48.702;9.326;2023-04-28T00:46:17;3.73;;;3.30;;
7843;SDS011;3967;48.702;9.326;2023-04-28T00:48:47;3.83;;;3.40;;
7843;SDS011;3967;48.702;9.326;2023-04-28T00:51:15;5.70;;;3.50;;
7843;SDS011;3967;48.702;9.326;2023-04-28T00:53:43;6.13;;;3.43;;
7843;SDS011;3967;48.702;9.326;2023-04-28T00:56:10;4.00;;;3.03;;
7843;SDS011;3967;48.702;9.326;2023-04-28T00:58:37;3.57;;;3.27;;
7843;SDS011;3967;48.702;9.326;2023-04-28T01:01:04;5.03;;;3.77;;
7843;SDS011;3967;48.702;9.326;2023-04-28T01:03:33;4.40;;;3.50;;
7843;SDS011;3967;48.702;9.326;2023-04-28T01:06:06;4.50;;;3.70;;
7843;SDS011;3967;48.702;9.326;2023-04-28T01:08:34;5.43;;;3.50;;
7843;SDS011;3967;48.702;9.326;2023-04-28T01:11:02;4.33;;;3.63;;
7843;SDS011;3967;48.702;9.326;2023-04-28T01:13:29;3.80;;;3.40;;
7843;SDS011;3967;48.702;9.326;2023-04-28T01:15:56;4.80;;;4.10;;
7843;SDS011;3967;48.702;9.326;2023-04-28T01:18:23;3.50;;;3.20;;
7843;SDS011;3967;48.702;9.326;2023-04-28T01:20:50;4.93;;;3.73;;
7843;SDS011;3967;48.702;9.326;2023-04-28T01:23:17;5.37;;;3.60;;
7843;SDS011;3967;48.702;9.326;2023-04-28T01:25:43;6.10;;;3.50;;
7843;SDS011;3967;48.702;9.326;2023-04-28T01:28:10;3.57;;;3.27;;
7843;SDS011;3967;48.702;9.326;2023-04-28T01:30:37;6.30;;;4.30;;
7843;SDS011;3967;48.702;9.326;2023-04-28T01:33:04;6.40;;;4.07;;
7843;SDS011;3967;48.702;9.326;2023-04-28T01:35:30;4.47;;;4.03;;
7843;SDS011;3967;48.702;9.326;2023-04-28T01:37:57;6.27;;;3.70;;
7843;SDS011;3967;48.702;9.326;2023-04-28T01:40:24;5.30;;;3.57;;
7843;SDS011;3967;48.702;9.326;2023-04-28T01:42:51;4.60;;;3.83;;
7843;SDS011;3967;48.702;9.326;2023-04-28T01:45:17;8.20;;;3.60;;
7843;SDS011;3967;48.702;9.326;2023-04-28T01:47:44;6.07;;;3.50;;
7843;SDS011;3967;48.702;9.326;2023-04-28T01:50:11;7.87;;;4.03;;
7843;SDS011;3967;48.702;9.326;2023-04-28T01:52:37;5.23;;;3.83;;
7843;SDS011;3967;48.702;9.326;2023-04-28T01:58:27;4.97;;;4.13;;
7843;SDS011;3967;48.702;9.326;2023-04-28T02:00:54;6.03;;;4.17;;
7843;SDS011;3967;48.702;9.326;2023-04-28T02:03:20;4.80;;;4.20;;
7843;SDS011;3967;48.702;9.326;2023-04-28T02:05:47;4.77;;;4.13;;
7843;SDS011;3967;48.702;9.326;2023-04-28T02:08:14;6.90;;;3.70;;
7843;SDS011;3967;48.702;9.326;2023-04-28T02:10:41;4.37;;;3.43;;
7843;SDS011;3967;48.702;9.326;2023-04-28T02:13:08;4.13;;;3.30;;
7843;SDS011;3967;48.702;9.326;2023-04-28T02:15:38;4.83;;;3.27;;
7843;SDS011;3967;48.702;9.326;2023-04-28T02:18:09;4.83;;;3.70;;
7843;SDS011;3967;48.702;9.326;2023-04-28T02:20:36;5.67;;;4.03;;
7843;SDS011;3967;48.702;9.326;2023-04-28T02:23:02;4.07;;;3.67;;
7843;SDS011;3967;48.702;9.326;2023-04-28T02:25:29;4.33;;;3.93;;
7843;SDS011;3967;48.702;9.326;2023-04-28T02:27:56;6.93;;;4.00;;
7843;SDS011;3967;48.702;9.326;2023-04-28T02:30:22;4.37;;;3.53;;
7843;SDS011;3967;48.702;9.326;2023-04-28T02:32:49;5.30;;;4.40;;
7843;SDS011;3967;48.702;9.326;2023-04-28T02:35:16;4.20;;;3.80;;
7843;SDS011;3967;48.702;9.326;2023-04-28T02:37:43;3.97;;;3.57;;
7843;SDS011;3967;48.702;9.326;2023-04-28T02:40:10;7.30;;;4.40;;
7843;SDS011;3967;48.702;9.326;2023-04-28T02:42:37;7.37;;;4.03;;
7843;SDS011;3967;48.702;9.326;2023-04-28T02:45:04;6.63;;;3.93;;
7843;SDS011;3967;48.702;9.326;2023-04-28T02:47:31;7.30;;;4.73;;
7843;SDS011;3967;48.702;9.326;2023-04-28T02:49:58;6.13;;;3.90;;
7843;SDS011;3967;48.702;9.326;2023-04-28T02:52:24;7.13;;;4.60;;
7843;SDS011;3967;48.702;9.326;2023-04-28T02:54:51;7.83;;;4.63;;
7843;SDS011;3967;48.702;9.326;2023-04-28T02:57:22;5.40;;;4.40;;
7843;SDS011;3967;48.702;9.326;2023-04-28T02:59:49;5.03;;;4.20;;
7843;SDS011;3967;48.702;9.326;2023-04-28T03:02:16;5.30;;;4.17;;
7843;SDS011;3967;48.702;9.326;2023-04-28T03:04:43;6.80;;;4.03;;
7843;SDS011;3967;48.702;9.326;2023-04-28T03:07:09;7.50;;;4.37;;
7843;SDS011;3967;48.702;9.326;2023-04-28T03:09:36;6.70;;;4.50;;
7843;SDS011;3967;48.702;9.326;2023-04-28T03:12:04;4.57;;;3.87;;
7843;SDS011;3967;48.702;9.326;2023-04-28T03:14:31;4.13;;;3.60;;
7843;SDS011;3967;48.702;9.326;2023-04-28T03:16:58;4.53;;;4.13;;
7843;SDS011;3967;48.702;9.326;2023-04-28T03:19:24;4.70;;;4.03;;
7843;SDS011;3967;48.702;9.326;2023-04-28T03:21:51;3.80;;;3.50;;
7843;SDS011;3967;48.702;9.326;2023-04-28T03:24:18;4.47;;;4.07;;
7843;SDS011;3967;48.702;9.326;2023-04-28T03:26:45;8.80;;;5.13;;
7843;SDS011;3967;48.702;9.326;2023-04-28T03:29:11;5.17;;;4.77;;
7843;SDS011;3967;48.702;9.326;2023-04-28T03:31:38;6.07;;;5.47;;
7843;SDS011;3967;48.702;9.326;2023-04-28T03:34:05;5.43;;;4.73;;
7843;SDS011;3967;48.702;9.326;2023-04-28T03:36:31;5.53;;;4.80;;
7843;SDS011;3967;48.702;9.326;2023-04-28T03:38:58;4.93;;;4.43;;
7843;SDS011;3967;48.702;9.326;2023-04-28T03:41:25;5.67;;;4.40;;
7843;SDS011;3967;48.702;9.326;2023-04-28T03:43:52;5.83;;;5.00;;
7843;SDS011;3967;48.702;9.326;2023-04-28T03:46:18;5.80;;;4.50;;
7843;SDS011;3967;48.702;9.326;2023-04-28T03:48:45;7.93;;;5.20;;
7843;SDS011;3967;48.702;9.326;2023-04-28T03:51:12;5.57;;;4.97;;
7843;SDS011;3967;48.702;9.326;2023-04-28T03:53:38;7.33;;;5.20;;
7843;SDS011;3967;48.702;9.326;2023-04-28T03:56:05;6.30;;;5.03;;
7843;SDS011;3967;48.702;9.326;2023-04-28T03:58:32;6.23;;;4.50;;
7843;SDS011;3967;48.702;9.326;2023-04-28T04:00:59;6.93;;;4.53;;
7843;SDS011;3967;48.702;9.326;2023-04-28T04:03:26;4.70;;;4.03;;
7843;SDS011;3967;48.702;9.326;2023-04-28T04:05:53;6.23;;;5.10;;
7843;SDS011;3967;48.702;9.326;2023-04-28T04:08:20;5.97;;;4.63;;
7843;SDS011;3967;48.702;9.326;2023-04-28T04:10:47;5.37;;;4.90;;
7843;SDS011;3967;48.702;9.326;2023-04-28T04:13:14;6.10;;;5.20;;
7843;SDS011;3967;48.702;9.326;2023-04-28T04:15:41;5.90;;;4.47;;
7843;SDS011;3967;48.702;9.326;2023-04-28T04:18:07;6.63;;;4.93;;
7843;SDS011;3967;48.702;9.326;2023-04-28T04:20:34;5.33;;;3.93;;
7843;SDS011;3967;48.702;9.326;2023-04-28T04:23:01;5.80;;;4.73;;
7843;SDS011;3967;48.702;9.326;2023-04-28T04:25:29;5.93;;;4.87;;
7843;SDS011;3967;48.702;9.326;2023-04-28T04:27:55;5.43;;;4.60;;
7843;SDS011;3967;48.702;9.326;2023-04-28T04:30:22;10.47;;;5.63;;
7843;SDS011;3967;48.702;9.326;2023-04-28T04:32:49;6.70;;;5.47;;
7843;SDS011;3967;48.702;9.326;2023-04-28T04:35:16;8.73;;;5.23;;
7843;SDS011;3967;48.702;9.326;2023-04-28T04:37:43;6.47;;;4.97;;
7843;SDS011;3967;48.702;9.326;2023-04-28T04:40:10;6.53;;;5.13;;
7843;SDS011;3967;48.702;9.326;2023-04-28T04:42:37;5.63;;;4.47;;
7843;SDS011;3967;48.702;9.326;2023-04-28T04:45:04;6.43;;;4.90;;
7843;SDS011;3967;48.702;9.326;2023-04-28T04:47:31;6.00;;;5.10;;
7843;SDS011;3967;48.702;9.326;2023-04-28T04:49:57;7.53;;;5.13;;
7843;SDS011;3967;48.702;9.326;2023-04-28T04:52:24;7.23;;;5.13;;
7843;SDS011;3967;48.702;9.326;2023-04-28T04:54:51;6.40;;;4.90;;
7843;SDS011;3967;48.702;9.326;2023-04-28T04:57:18;6.37;;;4.83;;
7843;SDS011;3967;48.702;9.326;2023-04-28T04:59:44;7.37;;;5.23;;
7843;SDS011;3967;48.702;9.326;2023-04-28T05:02:11;8.40;;;5.17;;
7843;SDS011;3967;48.702;9.326;2023-04-28T05:04:38;8.70;;;5.17;;
7843;SDS011;3967;48.702;9.326;2023-04-28T05:07:04;6.37;;;4.77;;
7843;SDS011;3967;48.702;9.326;2023-04-28T05:09:31;7.83;;;5.37;;
7843;SDS011;3967;48.702;9.326;2023-04-28T05:11:59;7.07;;;5.17;;
7843;SDS011;3967;48.702;9.326;2023-04-28T05:14:28;5.37;;;4.90;;
7843;SDS011;3967;48.702;9.326;2023-04-28T05:16:55;5.37;;;4.57;;
7843;SDS011;3967;48.702;9.326;2023-04-28T05:19:22;8.80;;;5.60;;
7843;SDS011;3967;48.702;9.326;2023-04-28T05:21:49;7.03;;;5.17;;
7843;SDS011;3967;48.702;9.326;2023-04-28T05:24:21;10.03;;;5.83;;
7843;SDS011;3967;48.702;9.326;2023-04-28T05:26:49;6.40;;;5.23;;
7843;SDS011;3967;48.702;9.326;2023-04-28T05:29:16;8.87;;;5.00;;
7843;SDS011;3967;48.702;9.326;2023-04-28T05:31:43;5.70;;;5.10;;
7843;SDS011;3967;48.702;9.326;2023-04-28T05:34:10;8.00;;;5.87;;
7843;SDS011;3967;48.702;9.326;2023-04-28T05:36:37;7.10;;;5.00;;
7843;SDS011;3967;48.702;9.326;2023-04-28T05:39:04;6.80;;;5.40;;
7843;SDS011;3967;48.702;9.326;2023-04-28T05:41:30;7.40;;;5.10;;
7843;SDS011;3967;48.702;9.326;2023-04-28T05:43:57;6.57;;;4.93;;
7843;SDS011;3967;48.702;9.326;2023-04-28T05:46:24;5.20;;;4.70;;
7843;SDS011;3967;48.702;9.326;2023-04-28T05:48:56;7.53;;;5.40;;
7843;SDS011;3967;48.702;9.326;2023-04-28T05:51:22;5.73;;;5.17;;
7843;SDS011;3967;48.702;9.326;2023-04-28T05:53:49;6.57;;;5.13;;
7843;SDS011;3967;48.702;9.326;2023-04-28T05:56:16;8.43;;;6.97;;
7843;SDS011;3967;48.702;9.326;2023-04-28T05:58:43;7.00;;;5.67;;
7843;SDS011;3967;48.702;9.326;2023-04-28T06:01:10;5.90;;;5.23;;
7843;SDS011;3967;48.702;9.326;2023-04-28T06:03:37;7.13;;;5.73;;
7843;SDS011;3967;48.702;9.326;2023-04-28T06:06:06;6.93;;;6.07;;
7843;SDS011;3967;48.702;9.326;2023-04-28T06:08:35;6.57;;;5.83;;
7843;SDS011;3967;48.702;9.326;2023-04-28T06:11:03;7.40;;;5.53;;
7843;SDS011;3967;48.702;9.326;2023-04-28T06:13:29;9.13;;;5.47;;
7843;SDS011;3967;48.702;9.326;2023-04-28T06:15:56;6.30;;;5.70;;
7843;SDS011;3967;48.702;9.326;2023-04-28T06:18:23;7.83;;;6.60;;
7843;SDS011;3967;48.702;9.326;2023-04-28T06:20:50;8.33;;;6.20;;
7843;SDS011;3967;48.702;9.326;2023-04-28T06:23:17;9.07;;;6.73;;
7843;SDS011;3967;48.702;9.326;2023-04-28T06:25:45;10.07;;;7.53;;
7843;SDS011;3967;48.702;9.326;2023-04-28T06:28:12;7.37;;;6.43;;
7843;SDS011;3967;48.702;9.326;2023-04-28T06:30:40;10.10;;;7.03;;
7843;SDS011;3967;48.702;9.326;2023-04-28T06:33:07;8.23;;;7.37;;
7843;SDS011;3967;48.702;9.326;2023-04-28T06:35:34;9.07;;;7.17;;
7843;SDS011;3967;48.702;9.326;2023-04-28T06:38:01;7.90;;;7.10;;
7843;SDS011;3967;48.702;9.326;2023-04-28T06:40:29;8.87;;;7.20;;
7843;SDS011;3967;48.702;9.326;2023-04-28T06:42:56;11.83;;;7.27;;
7843;SDS011;3967;48.702;9.326;2023-04-28T06:45:23;7.47;;;6.77;;
7843;SDS011;3967;48.702;9.326;2023-04-28T06:47:50;13.43;;;8.40;;
7843;SDS011;3967;48.702;9.326;2023-04-28T06:50:21;8.13;;;7.07;;
7843;SDS011;3967;48.702;9.326;2023-04-28T06:52:48;9.37;;;7.30;;
7843;SDS011;3967;48.702;9.326;2023-04-28T06:55:15;7.93;;;7.13;;
7843;SDS011;3967;48.702;9.326;2023-04-28T06:57:43;7.30;;;6.00;;
7843;SDS011;3967;48.702;9.326;2023-04-28T07:00:12;8.10;;;6.03;;
7843;SDS011;3967;48.702;9.326;2023-04-28T07:02:39;8.20;;;6.53;;
7843;SDS011;3967;48.702;9.326;2023-04-28T07:05:06;7.73;;;6.93;;
7843;SDS011;3967;48.702;9.326;2023-04-28T07:07:34;7.40;;;6.67;;
7843;SDS011;3967;48.702;9.326;2023-04-28T07:10:04;9.40;;;7.37;;
7843;SDS011;3967;48.702;9.326;2023-04-28T07:12:31;9.03;;;6.23;;
7843;SDS011;3967;48.702;9.326;2023-04-28T07:14:58;10.67;;;6.83;;
7843;SDS011;3967;48.702;9.326;2023-04-28T07:17:25;10.77;;;7.20;;
7843;SDS011;3967;48.702;9.326;2023-04-28T07:19:51;7.30;;;6.50;;
7843;SDS011;3967;48.702;9.326;2023-04-28T07:22:18;7.97;;;7.03;;
7843;SDS011;3967;48.702;9.326;2023-04-28T07:24:45;9.20;;;7.03;;
7843;SDS011;3967;48.702;9.326;2023-04-28T07:27:12;9.40;;;7.37;;
7843;SDS011;3967;48.702;9.326;2023-04-28T07:29:38;10.43;;;7.37;;
7843;SDS011;3967;48.702;9.326;2023-04-28T07:32:05;9.73;;;7.77;;
7843;SDS011;3967;48.702;9.326;2023-04-28T07:34:35;9.53;;;8.13;;
7843;SDS011;3967;48.702;9.326;2023-04-28T07:37:02;10.17;;;8.73;;
7843;SDS011;3967;48.702;9.326;2023-04-28T07:39:30;10.80;;;7.80;;
7843;SDS011;3967;48.702;9.326;2023-04-28T07:41:57;12.07;;;7.93;;
7843;SDS011;3967;48.702;9.326;2023-04-28T07:44:24;10.93;;;7.87;;
7843;SDS011;3967;48.702;9.326;2023-04-28T07:46:52;7.97;;;6.87;;
7843;SDS011;3967;48.702;9.326;2023-04-28T07:49:19;7.53;;;6.83;;
7843;SDS011;3967;48.702;9.326;2023-04-28T07:51:46;10.23;;;9.23;;
7843;SDS011;3967;48.702;9.326;2023-04-28T07:54:13;8.70;;;6.70;;
7843;SDS011;3967;48.702;9.326;2023-04-28T07:56:42;10.70;;;7.13;;
7843;SDS011;3967;48.702;9.326;2023-04-28T07:59:10;7.70;;;6.63;;
7843;SDS011;3967;48.702;9.326;2023-04-28T08:01:37;9.13;;;8.20;;
7843;SDS011;3967;48.702;9.326;2023-04-28T08:04:04;9.17;;;8.20;;
7843;SDS011;3967;48.702;9.326;2023-04-28T08:06:31;8.60;;;7.70;;
7843;SDS011;3967;48.702;9.326;2023-04-28T08:08:59;9.00;;;7.43;;
7843;SDS011;3967;48.702;9.326;2023-04-28T08:11:27;7.80;;;7.00;;
7843;SDS011;3967;48.702;9.326;2023-04-28T08:13:54;6.80;;;6.10;;
7843;SDS011;3967;48.702;9.326;2023-04-28T08:16:26;8.57;;;6.50;;
7843;SDS011;3967;48.702;9.326;2023-04-28T08:18:53;10.33;;;7.63;;
7843;SDS011;3967;48.702;9.326;2023-04-28T08:21:20;10.20;;;6.97;;
7843;SDS011;3967;48.702;9.326;2023-04-28T08:23:47;9.30;;;7.40;;
7843;SDS011;3967;48.702;9.326;2023-04-28T08:26:14;11.13;;;8.13;;
7843;SDS011;3967;48.702;9.326;2023-04-28T08:28:40;9.40;;;6.97;;
7843;SDS011;3967;48.702;9.326;2023-04-28T08:31:08;9.83;;;7.27;;
7843;SDS011;3967;48.702;9.326;2023-04-28T08:33:35;9.43;;;6.17;;
7843;SDS011;3967;48.702;9.326;2023-04-28T08:36:01;9.30;;;7.53;;
7843;SDS011;3967;48.702;9.326;2023-04-28T08:38:28;8.50;;;7.10;;
7843;SDS011;3967;48.702;9.326;2023-04-28T08:40:55;9.97;;;7.87;;
7843;SDS011;3967;48.702;9.326;2023-04-28T08:43:22;10.23;;;7.67;;
7843;SDS011;3967;48.702;9.326;2023-04-28T08:45:50;9.53;;;7.17;;
7843;SDS011;3967;48.702;9.326;2023-04-28T08:48:18;11.27;;;8.57;;
7843;SDS011;3967;48.702;9.326;2023-04-28T08:50:55;11.50;;;8.23;;
7843;SDS011;3967;48.702;9.326;2023-04-28T08:53:24;9.73;;;8.70;;
7843;SDS011;3967;48.702;9.326;2023-04-28T08:55:55;11.87;;;9.60;;
7843;SDS011;3967;48.702;9.326;2023-04-28T08:58:23;10.90;;;7.97;;
7843;SDS011;3967;48.702;9.326;2023-04-28T09:00:51;10.37;;;7.43;;
7843;SDS011;3967;48.702;9.326;2023-04-28T09:03:19;10.70;;;8.40;;
7843;SDS011;3967;48.702;9.326;2023-04-28T09:05:46;7.93;;;6.93;;
7843;SDS011;3967;48.702;9.326;2023-04-28T09:08:14;11.40;;;9.57;;
7843;SDS011;3967;48.702;9.326;2023-04-28T09:10:41;10.47;;;8.87;;
7843;SDS011;3967;48.702;9.326;2023-04-28T09:13:08;7.63;;;6.73;;
7843;SDS011;3967;48.702;9.326;2023-04-28T09:15:37;6.47;;;5.87;;
7843;SDS011;3967;48.702;9.326;2023-04-28T09:18:09;10.13;;;7.17;;
7843;SDS011;3967;48.702;9.326;2023-04-28T09:20:40;9.33;;;6.00;;
7843;SDS011;3967;48.702;9.326;2023-04-28T09:23:16;11.47;;;10.30;;
7843;SDS011;3967;48.702;9.326;2023-04-28T09:26:00;8.23;;;7.47;;
7843;SDS011;3967;48.702;9.326;2023-04-28T09:28:34;7.53;;;6.83;;
7843;SDS011;3967;48.702;9.326;2023-04-28T09:31:01;7.80;;;7.10;;
7843;SDS011;3967;48.702;9.326;2023-04-28T09:33:29;11.23;;;10.13;;
7843;SDS011;3967;48.702;9.326;2023-04-28T09:35:56;7.57;;;6.77;;
7843;SDS011;3967;48.702;9.326;2023-04-28T09:38:23;12.90;;;9.57;;
7843;SDS011;3967;48.702;9.326;2023-04-28T09:40:51;13.87;;;11.10;;
7843;SDS011;3967;48.702;9.326;2023-04-28T09:43:31;15.80;;;11.73;;
7843;SDS011;3967;48.702;9.326;2023-04-28T09:46:00;11.20;;;10.00;;
7843;SDS011;3967;48.702;9.326;2023-04-28T09:48:30;18.73;;;11.43;;
7843;SDS011;3967;48.702;9.326;2023-04-28T09:50:59;13.73;;;11.03;;
7843;SDS011;3967;48.702;9.326;2023-04-28T09:53:27;17.43;;;12.13;;
7843;SDS011;3967;48.702;9.326;2023-04-28T09:55:55;17.77;;;13.77;;
7843;SDS011;3967;48.702;9.326;2023-04-28T09:58:24;15.33;;;13.07;;
7843;SDS011;3967;48.702;9.326;2023-04-28T10:00:53;14.00;;;11.57;;
7843;SDS011;3967;48.702;9.326;2023-04-28T10:03:28;13.47;;;11.07;;
7843;SDS011;3967;48.702;9.326;2023-04-28T10:05:56;14.80;;;11.13;;
7843;SDS011;3967;48.702;9.326;2023-04-28T10:08:24;10.00;;;9.00;;
7843;SDS011;3967;48.702;9.326;2023-04-28T10:10:53;7.27;;;6.43;;
7843;SDS011;3967;48.702;9.326;2023-04-28T10:13:20;5.87;;;5.37;;
7843;SDS011;3967;48.702;9.326;2023-04-28T10:15:48;4.90;;;4.40;;
7843;SDS011;3967;48.702;9.326;2023-04-28T10:18:16;5.57;;;5.07;;
7843;SDS011;3967;48.702;9.326;2023-04-28T10:20:44;4.40;;;4.00;;
7843;SDS011;3967;48.702;9.326;2023-04-28T10:25:47;3.57;;;2.73;;
7843;SDS011;3967;48.702;9.326;2023-04-28T10:28:15;2.70;;;2.50;;
7843;SDS011;3967;48.702;9.326;2023-04-28T10:30:42;2.60;;;2.40;;
7843;SDS011;3967;48.702;9.326;2023-04-28T10:33:39;3.47;;;2.50;;
7843;SDS011;3967;48.702;9.326;2023-04-28T10:36:07;3.37;;;2.40;;
7843;SDS011;3967;48.702;9.326;2023-04-28T10:38:34;4.03;;;2.33;;
7843;SDS011;3967;48.702;9.326;2023-04-28T10:41:01;2.20;;;2.00;;
7843;SDS011;3967;48.702;9.326;2023-04-28T10:54:13;1.57;;;1.47;;
7843;SDS011;3967;48.702;9.326;2023-04-28T10:56:23;2.00;;;1.60;;
7843;SDS011;3967;48.702;9.326;2023-04-28T10:58:52;1.67;;;1.37;;
7843;SDS011;3967;48.702;9.326;2023-04-28T11:11:30;1.23;;;0.90;;
7843;SDS011;3967;48.702;9.326;2023-04-28T11:16:47;1.50;;;1.40;;
7843;SDS011;3967;48.702;9.326;2023-04-28T11:19:15;1.33;;;1.23;;
7843;SDS011;3967;48.702;9.326;2023-04-28T11:21:45;1.40;;;1.30;;
7843;SDS011;3967;48.702;9.326;2023-04-28T11:24:13;1.13;;;1.03;;
7843;SDS011;3967;48.702;9.326;2023-04-28T11:26:40;1.27;;;1.20;;
7843;SDS011;3967;48.702;9.326;2023-04-28T11:29:07;1.03;;;1.03;;
7843;SDS011;3967;48.702;9.326;2023-04-28T11:31:34;5.67;;;1.20;;
7843;SDS011;3967;48.702;9.326;2023-04-28T11:34:20;1.57;;;0.80;;
7843;SDS011;3967;48.702;9.326;2023-04-28T11:36:47;1.63;;;1.00;;
7843;SDS011;3967;48.702;9.326;2023-04-28T11:39:14;1.10;;;0.70;;
7843;SDS011;3967;48.702;9.326;2023-04-28T11:41:44;1.03;;;1.00;;
7843;SDS011;3967;48.702;9.326;2023-04-28T11:44:15;0.70;;;0.70;;
7843;SDS011;3967;48.702;9.326;2023-04-28T11:46:43;0.90;;;0.90;;
7843;SDS011;3967;48.702;9.326;2023-04-28T11:49:17;0.90;;;0.90;;
7843;SDS011;3967;48.702;9.326;2023-04-28T11:51:44;4.20;;;0.80;;
7843;SDS011;3967;48.702;9.326;2023-04-28T11:54:13;1.40;;;1.00;;
7843;SDS011;3967;48.702;9.326;2023-04-28T11:56:46;0.80;;;0.80;;
7843;SDS011;3967;48.702;9.326;2023-04-28T11:59:13;1.07;;;0.70;;
7843;SDS011;3967;48.702;9.326;2023-04-28T12:01:50;0.60;;;0.60;;
7843;SDS011;3967;48.702;9.326;2023-04-28T12:04:52;2.30;;;0.70;;
7843;SDS011;3967;48.702;9.326;2023-04-28T12:07:15;0.70;;;0.60;;
7843;SDS011;3967;48.702;9.326;2023-04-28T12:10:26;0.80;;;0.70;;
7843;SDS011;3967;48.702;9.326;2023-04-28T12:12:37;0.53;;;0.53;;
7843;SDS011;3967;48.702;9.326;2023-04-28T12:15:17;0.60;;;0.60;;
7843;SDS011;3967;48.702;9.326;2023-04-28T12:17:46;0.50;;;0.50;;
7843;SDS011;3967;48.702;9.326;2023-04-28T12:20:32;0.40;;;0.40;;
7843;SDS011;3967;48.702;9.326;2023-04-28T12:23:04;0.80;;;0.80;;
7843;SDS011;3967;48.702;9.326;2023-04-28T12:25:31;0.80;;;0.80;;
7843;SDS011;3967;48.702;9.326;2023-04-28T12:28:03;1.30;;;0.63;;
7843;SDS011;3967;48.702;9.326;2023-04-28T12:30:33;1.27;;;0.40;;
7843;SDS011;3967;48.702;9.326;2023-04-28T12:33:23;0.60;;;0.40;;
7843;SDS011;3967;48.702;9.326;2023-04-28T12:35:52;0.90;;;0.60;;
7843;SDS011;3967;48.702;9.326;2023-04-28T12:38:20;0.40;;;0.40;;
7843;SDS011;3967;48.702;9.326;2023-04-28T12:40:48;0.30;;;0.30;;
7843;SDS011;3967;48.702;9.326;2023-04-28T12:43:14;0.47;;;0.40;;
7843;SDS011;3967;48.702;9.326;2023-04-28T12:45:41;1.77;;;0.30;;
7843;SDS011;3967;48.702;9.326;2023-04-28T12:48:08;1.13;;;0.53;;
7843;SDS011;3967;48.702;9.326;2023-04-28T12:50:35;0.40;;;0.40;;
7843;SDS011;3967;48.702;9.326;2023-04-28T12:53:02;0.50;;;0.37;;
7843;SDS011;3967;48.702;9.326;2023-04-28T12:55:30;2.57;;;0.30;;
7843;SDS011;3967;48.702;9.326;2023-04-28T12:57:56;0.47;;;0.30;;
7843;SDS011;3967;48.702;9.326;2023-04-28T13:00:25;0.40;;;0.40;;
7843;SDS011;3967;48.702;9.326;2023-04-28T13:02:52;0.30;;;0.30;;
7843;SDS011;3967;48.702;9.326;2023-04-28T13:05:19;0.27;;;0.20;;
7843;SDS011;3967;48.702;9.326;2023-04-28T13:07:46;0.80;;;0.20;;
7843;SDS011;3967;48.702;9.326;2023-04-28T13:10:16;0.70;;;0.50;;
7843;SDS011;3967;48.702;9.326;2023-04-28T13:12:44;0.27;;;0.27;;
7843;SDS011;3967;48.702;9.326;2023-04-28T13:15:13;1.00;;;0.83;;
7843;SDS011;3967;48.702;9.326;2023-04-28T13:17:41;0.27;;;0.27;;
7843;SDS011;3967;48.702;9.326;2023-04-28T13:20:08;0.40;;;0.30;;
7843;SDS011;3967;48.702;9.326;2023-04-28T13:22:35;0.50;;;0.37;;
7843;SDS011;3967;48.702;9.326;2023-04-28T13:25:02;0.63;;;0.60;;
7843;SDS011;3967;48.702;9.326;2023-04-28T13:27:32;0.77;;;0.47;;
7843;SDS011;3967;48.702;9.326;2023-04-28T13:29:58;0.40;;;0.40;;
7843;SDS011;3967;48.702;9.326;2023-04-28T13:32:25;0.60;;;0.50;;
7843;SDS011;3967;48.702;9.326;2023-04-28T13:34:53;0.60;;;0.60;;
7843;SDS011;3967;48.702;9.326;2023-04-28T13:37:20;1.87;;;0.57;;
7843;SDS011;3967;48.702;9.326;2023-04-28T13:39:47;1.00;;;0.70;;
7843;SDS011;3967;48.702;9.326;2023-04-28T13:42:14;0.50;;;0.50;;
7843;SDS011;3967;48.702;9.326;2023-04-28T13:44:41;0.73;;;0.60;;
7843;SDS011;3967;48.702;9.326;2023-04-28T13:47:07;1.10;;;0.73;;
7843;SDS011;3967;48.702;9.326;2023-04-28T13:49:35;1.07;;;0.50;;
7843;SDS011;3967;48.702;9.326;2023-04-28T13:52:02;0.53;;;0.53;;
7843;SDS011;3967;48.702;9.326;2023-04-28T13:54:29;0.60;;;0.60;;
7843;SDS011;3967;48.702;9.326;2023-04-28T13:56:56;0.40;;;0.40;;
7843;SDS011;3967;48.702;9.326;2023-04-28T13:59:23;1.43;;;0.70;;
7843;SDS011;3967;48.702;9.326;2023-04-28T14:01:50;2.17;;;0.70;;
7843;SDS011;3967;48.702;9.326;2023-04-28T14:04:17;0.77;;;0.77;;
7843;SDS011;3967;48.702;9.326;2023-04-28T14:06:44;2.43;;;0.80;;
7843;SDS011;3967;48.702;9.326;2023-04-28T14:09:11;1.50;;;0.80;;
7843;SDS011;3967;48.702;9.326;2023-04-28T14:11:37;1.53;;;1.30;;
7843;SDS011;3967;48.702;9.326;2023-04-28T14:14:04;1.90;;;0.70;;
7843;SDS011;3967;48.702;9.326;2023-04-28T14:16:31;2.10;;;0.60;;
7843;SDS011;3967;48.702;9.326;2023-04-28T14:18:58;1.37;;;0.60;;
7843;SDS011;3967;48.702;9.326;2023-04-28T14:21:25;0.80;;;0.70;;
7843;SDS011;3967;48.702;9.326;2023-04-28T14:23:53;0.30;;;0.30;;
7843;SDS011;3967;48.702;9.326;2023-04-28T14:26:20;1.50;;;0.50;;
7843;SDS011;3967;48.702;9.326;2023-04-28T14:28:48;2.57;;;0.50;;
7843;SDS011;3967;48.702;9.326;2023-04-28T14:31:15;0.40;;;0.40;;
7843;SDS011;3967;48.702;9.326;2023-04-28T14:33:43;1.60;;;0.50;;
7843;SDS011;3967;48.702;9.326;2023-04-28T14:36:10;4.30;;;0.50;;
7843;SDS011;3967;48.702;9.326;2023-04-28T14:38:36;5.07;;;0.90;;
7843;SDS011;3967;48.702;9.326;2023-04-28T14:41:05;1.53;;;0.50;;
7843;SDS011;3967;48.702;9.326;2023-04-28T14:43:32;1.67;;;0.40;;
7843;SDS011;3967;48.702;9.326;2023-04-28T14:45:59;1.00;;;0.50;;
7843;SDS011;3967;48.702;9.326;2023-04-28T14:48:26;0.63;;;0.63;;
7843;SDS011;3967;48.702;9.326;2023-04-28T14:50:53;0.63;;;0.40;;
7843;SDS011;3967;48.702;9.326;2023-04-28T14:53:19;0.50;;;0.50;;
7843;SDS011;3967;48.702;9.326;2023-04-28T14:55:49;0.70;;;0.70;;
7843;SDS011;3967;48.702;9.326;2023-04-28T14:58:16;1.93;;;0.63;;
7843;SDS011;3967;48.702;9.326;2023-04-28T15:00:42;1.13;;;0.50;;
7843;SDS011;3967;48.702;9.326;2023-04-28T15:03:13;0.60;;;0.50;;
7843;SDS011;3967;48.702;9.326;2023-04-28T15:05:40;0.30;;;0.30;;
7843;SDS011;3967;48.702;9.326;2023-04-28T15:08:07;2.50;;;0.40;;
7843;SDS011;3967;48.702;9.326;2023-04-28T15:10:36;0.30;;;0.30;;
7843;SDS011;3967;48.702;9.326;2023-04-28T15:13:05;0.50;;;0.50;;
7843;SDS011;3967;48.702;9.326;2023-04-28T15:15:33;1.30;;;0.60;;
7843;SDS011;3967;48.702;9.326;2023-04-28T15:18:00;0.60;;;0.50;;
7843;SDS011;3967;48.702;9.326;2023-04-28T15:20:28;2.70;;;0.40;;
7843;SDS011;3967;48.702;9.326;2023-04-28T15:22:56;0.50;;;0.50;;
7843;SDS011;3967;48.702;9.326;2023-04-28T15:25:22;2.20;;;0.30;;
7843;SDS011;3967;48.702;9.326;2023-04-28T15:27:49;1.60;;;0.70;;
7843;SDS011;3967;48.702;9.326;2023-04-28T15:30:17;1.50;;;0.50;;
7843;SDS011;3967;48.702;9.326;2023-04-28T15:32:44;0.47;;;0.40;;
7843;SDS011;3967;48.702;9.326;2023-04-28T15:35:11;0.33;;;0.33;;
7843;SDS011;3967;48.702;9.326;2023-04-28T15:37:42;0.50;;;0.50;;
7843;SDS011;3967;48.702;9.326;2023-04-28T15:40:13;0.30;;;0.30;;
7843;SDS011;3967;48.702;9.326;2023-04-28T15:42:49;1.57;;;0.60;;
7843;SDS011;3967;48.702;9.326;2023-04-28T15:45:21;0.60;;;0.50;;
7843;SDS011;3967;48.702;9.326;2023-04-28T15:47:48;0.40;;;0.40;;